Date,TemperatureHighF,TemperatureAvgF,TemperatureLowF,DewpointHighF,DewpointAvgF,DewpointLowF,HumidityHigh,HumidityAvg,HumidityLow,PressureMaxIn,PressureMinIn,WindSpeedMaxMPH,WindSpeedAvgMPH,GustSpeedMaxMPH,PrecipitationSumIn
2013-2-1,67,49,31,34,30,25,80,52,26,30.16,30.06,4,0,8,0.00
2013-2-2,65,53,40,43,33,28,68,49,26,30.20,30.09,5,0,8,0.00
2013-2-3,69,56,44,46,37,24,85,54,21,30.12,29.94,8,1,13,0.00
2013-2-4,70,52,34,32,26,22,69,41,19,30.05,29.91,4,0,10,0.00
2013-2-5,67,43,34,43,27,24,85,55,25,29.96,29.89,11,1,22,0.00
2013-2-6,66,50,38,42,32,21,84,56,21,29.99,29.88,11,4,20,0.00
2013-2-7,43,35,30,31,22,17,62,58,54,30.00,29.82,7,1,14,0.00
2013-2-8,49,41,36,31,28,25,73,62,44,29.81,29.73,14,8,23,0.00
2013-2-9,49,40,34,28,25,20,68,55,32,29.93,29.76,14,6,29,0.00
2013-2-10,51,37,32,27,21,18,60,53,29,29.95,29.90,5,1,7,0.00
2013-2-11,50,36,26,27,16,0,78,48,17,30.12,29.94,9,1,11,0.00
2013-2-12,52,34,23,15,8,1,46,33,18,30.24,30.11,2,0,6,0.00
2013-2-13,59,38,0,28,18,10,58,43,21,30.20,30.07,5,0,9,0.00
2013-2-14,68,48,29,25,21,17,63,37,17,30.17,30.04,12,2,19,0.00
2013-2-15,70,55,35,24,20,13,55,28,14,30.23,30.14,10,4,25,0.00
2013-2-16,68,50,32,20,15,11,43,27,13,30.20,29.97,8,1,13,0.00
2013-2-17,69,51,29,33,22,12,57,35,17,29.90,29.79,17,4,23,0.00
2013-2-18,66,49,30,36,28,22,77,49,24,29.94,29.79,19,4,23,0.00
2013-2-19,50,43,36,38,34,28,88,71,53,29.81,29.55,22,9,31,0.04
2013-2-20,48,40,33,28,23,18,81,52,33,29.86,29.54,25,11,33,0.00
2013-2-21,54,43,30,29,24,17,75,50,24,29.99,29.82,10,4,19,0.00
2013-2-22,59,39,27,27,24,21,81,58,22,30.10,30.00,3,1,13,0.00
2013-2-23,61,48,35,32,28,23,65,48,28,30.03,29.81,19,5,33,0.00
2013-2-24,56,45,33,26,5,-1,50,20,10,30.12,29.99,18,6,27,0.00
2013-2-25,66,46,24,20,9,-3,35,23,13,30.15,29.93,13,3,24,0.00
2013-2-26,62,52,40,25,15,2,53,26,13,30.10,29.94,13,4,22,0.00
2013-2-27,61,47,29,12,8,2,39,21,12,30.24,30.09,6,2,15,0.00
2013-2-28,68,48,28,14,10,3,44,24,10,30.31,30.21,6,1,11,0.00